Time;durP1;ratioP1;P1;durP2;ratioP2;P2;SDS_P1;SDS_P2;PMS_P1;PMS_P2;Temp;Humidity;BMP_temperature;BMP_pressure;BME280_temperature;BME280_humidity;BME280_pressure;Samples;Min_cycle;Max_cycle;Signal;HPM_P1;HPM_P2
2021/06/25 00:01:43;;;;;;;;;;;;;;;12.94;87.01;101401.91;5072815;28;20056;-67
2021/06/25 00:04:09;;;;;;;6.47;1.88;;;;;;;12.96;86.83;101400.88;5071826;28;19927;-68
2021/06/25 00:06:36;;;;;;;3.97;1.85;;;;;;;13.07;86.13;101398.56;5072303;28;20048;-67
2021/06/25 00:09:03;;;;;;;4.43;1.88;;;;;;;13.10;85.85;101400.16;5071879;28;20408;-67
2021/06/25 00:11:30;;;;;;;;;;;;;;;12.94;87.17;101394.06;5072706;28;20052;-67
2021/06/25 00:13:58;;;;;;;5.47;2.00;;;;;;;12.94;86.13;101394.91;5071976;28;20271;-67
2021/06/25 00:16:25;;;;;;;4.57;2.00;;;;;;;12.85;87.31;101393.66;5071871;28;20044;-67
2021/06/25 00:18:52;;;;;;;4.78;1.80;;;;;;;12.74;87.98;101388.16;5072175;28;20068;-67
2021/06/25 00:21:18;;;;;;;6.00;1.80;;;;;;;12.82;87.13;101392.97;5071649;28;20415;-68
2021/06/25 00:23:45;;;;;;;5.32;2.15;;;;;;;12.81;87.36;101396.50;5072047;28;20044;-67
2021/06/25 00:26:12;;;;;;;3.20;1.73;;;;;;;12.90;86.69;101401.22;5071767;28;20064;-67
2021/06/25 00:28:39;;;;;;;6.85;1.98;;;;;;;12.89;86.80;101401.31;5071812;28;20514;-67
2021/06/25 00:31:07;;;;;;;4.13;1.70;;;;;;;13.05;84.84;101402.16;5071518;28;20048;-67
2021/06/25 00:33:34;;;;;;;4.47;1.80;;;;;;;13.00;86.37;101410.25;5071747;28;20411;-67
2021/06/25 00:36:01;;;;;;;;;;;;;;;13.22;84.87;101412.50;5072467;28;20055;-67
2021/06/25 00:38:28;;;;;;;5.22;1.77;;;;;;;13.16;86.18;101410.25;5071442;28;19920;-67
2021/06/25 00:40:55;;;;;;;2.40;1.45;;;;;;;13.23;84.98;101408.13;5071633;28;20052;-68
2021/06/25 00:43:22;;;;;;;6.25;1.38;;;;;;;13.34;84.52;101405.78;5071432;28;20052;-67
2021/06/25 00:45:49;;;;;;;6.90;1.50;;;;;;;13.45;84.72;101394.72;5071892;28;20045;-67
2021/06/25 00:48:17;;;;;;;;;;;;;;;13.81;79.75;101404.84;5071458;28;20059;-68
2021/06/25 00:50:44;;;;;;;2.30;1.23;;;;;;;13.90;81.31;101401.69;5071387;28;19920;-68
2021/06/25 00:53:11;;;;;;;3.08;1.20;;;;;;;14.12;78.42;101393.41;5071425;28;20048;-67
2021/06/25 00:55:43;;;;;;;1.25;1.13;;;;;;;14.06;79.49;101404.25;5071524;28;20056;-67
2021/06/25 00:58:11;;;;;;;2.97;1.38;;;;;;;13.97;80.80;101403.94;5071632;28;20110;-68
2021/06/25 01:00:38;;;;;;;2.40;1.10;;;;;;;14.23;77.42;101405.88;5071424;28;20403;-68
2021/06/25 01:03:05;;;;;;;;;;;;;;;14.43;77.86;101407.25;5071685;28;20051;-67
2021/06/25 01:05:34;;;;;;;2.60;1.20;;;;;;;14.52;79.07;101411.94;5075149;28;20306;-67
2021/06/25 01:08:01;;;;;;;1.05;0.85;;;;;;;14.70;77.41;101419.66;5075431;28;20052;-68
2021/06/25 01:10:28;;;;;;;1.40;1.02;;;;;;;14.71;76.30;101405.59;5075048;28;20048;-67
2021/06/25 01:12:55;;;;;;;4.15;1.27;;;;;;;14.87;76.17;101410.72;5075235;28;20059;-67
2021/06/25 01:15:22;;;;;;;1.88;0.82;;;;;;;14.99;74.78;101404.72;5075026;28;20059;-67
2021/06/25 01:17:49;;;;;;;1.30;1.10;;;;;;;15.08;74.37;101400.66;5074935;28;20052;-67
2021/06/25 01:20:18;;;;;;;1.55;0.95;;;;;;;15.14;73.97;101382.78;5074617;28;20139;-67
2021/06/25 01:22:47;;;;;;;2.55;1.40;;;;;;;14.92;76.20;101380.69;5075121;28;20056;-67
2021/06/25 01:25:16;;;;;;;1.45;1.00;;;;;;;14.92;76.90;101371.97;5074623;28;20044;-67
2021/06/25 01:27:44;;;;;;;1.08;0.98;;;;;;;14.81;78.32;101365.63;5074648;28;20572;-67
2021/06/25 01:30:14;;;;;;;1.35;0.98;;;;;;;14.75;77.14;101359.97;5075025;28;20063;-67
2021/06/25 01:32:41;;;;;;;3.70;1.08;;;;;;;14.59;79.01;101367.91;5074663;28;20526;-67
2021/06/25 01:35:10;;;;;;;2.58;1.10;;;;;;;14.57;78.76;101364.56;5074562;28;20053;-67
2021/06/25 01:37:37;;;;;;;6.70;2.28;;;;;;;14.51;79.47;101362.28;5075006;28;20040;-67
2021/06/25 01:40:08;;;;;;;3.10;1.00;;;;;;;14.55;76.92;101361.19;5074876;28;20044;-68
2021/06/25 01:42:37;;;;;;;1.10;0.80;;;;;;;14.83;74.48;101360.31;5074690;28;20067;-68
2021/06/25 01:45:07;;;;;;;1.25;1.00;;;;;;;14.75;76.27;101360.81;5074849;28;20048;-68
2021/06/25 01:47:36;;;;;;;0.90;0.90;;;;;;;14.56;77.57;101358.47;5074123;28;20517;-67
2021/06/25 01:50:04;;;;;;;2.03;0.98;;;;;;;14.54;77.85;101357.75;5074400;28;20045;-68
2021/06/25 01:52:31;;;;;;;0.95;0.95;;;;;;;14.42;78.31;101350.63;5074605;28;20075;-67
2021/06/25 01:54:58;;;;;;;1.40;1.00;;;;;;;14.27;79.35;101347.16;5074301;28;20053;-67
2021/06/25 01:57:26;;;;;;;1.10;1.00;;;;;;;14.58;76.67;101348.75;5074321;28;20049;-68
2021/06/25 01:59:53;;;;;;;1.80;0.90;;;;;;;14.63;75.24;101356.31;5074540;28;20052;-68
2021/06/25 02:02:20;;;;;;;1.10;1.00;;;;;;;14.46;77.74;101352.09;5073904;28;20514;-67
2021/06/25 02:04:47;;;;;;;2.25;1.08;;;;;;;14.75;73.25;101346.88;5074303;28;20059;-67
2021/06/25 02:07:13;;;;;;;1.65;1.10;;;;;;;14.71;75.16;101346.19;5074047;28;20147;-67
2021/06/25 02:09:40;;;;;;;1.23;0.90;;;;;;;14.86;72.79;101344.41;5074229;28;20049;-67
2021/06/25 02:12:08;;;;;;;2.00;1.00;;;;;;;14.79;73.74;101337.84;5073688;28;20082;-68
2021/06/25 02:14:37;;;;;;;1.45;0.82;;;;;;;14.99;72.43;101347.06;5073995;28;20049;-67
2021/06/25 02:17:04;;;;;;;1.95;1.00;;;;;;;14.77;74.20;101343.22;5073261;28;20040;-68
2021/06/25 02:19:31;;;;;;;1.27;1.00;;;;;;;15.02;72.74;101347.72;5073895;28;20487;-67
2021/06/25 02:21:58;;;;;;;0.90;0.90;;;;;;;15.10;71.13;101341.97;5074003;28;20060;-68
2021/06/25 02:24:25;;;;;;;1.23;1.05;;;;;;;15.12;71.96;101347.13;5073789;28;20507;-68
2021/06/25 02:26:52;;;;;;;1.20;1.00;;;;;;;15.03;73.13;101338.94;5073564;28;20502;-68
2021/06/25 02:29:19;;;;;;;1.42;1.08;;;;;;;15.06;72.10;101340.50;5073680;28;20044;-68
2021/06/25 02:31:47;;;;;;;2.47;1.10;;;;;;;15.19;71.50;101338.75;5073660;28;20060;-67
2021/06/25 02:34:14;;;;;;;1.52;0.90;;;;;;;15.22;71.35;101332.47;5073745;28;20052;-68
2021/06/25 02:36:41;;;;;;;1.65;1.08;;;;;;;15.34;71.50;101333.47;5073393;28;20045;-68
2021/06/25 02:39:08;;;;;;;1.98;0.95;;;;;;;15.32;72.00;101330.94;5073239;28;20513;-67
2021/06/25 02:41:35;;;;;;;4.15;1.08;;;;;;;15.42;71.77;101332.00;5073899;28;20045;-68
2021/06/25 02:44:02;;;;;;;1.33;1.23;;;;;;;15.38;70.68;101335.78;5073849;28;20052;-67
2021/06/25 02:46:29;;;;;;;1.35;1.00;;;;;;;15.49;70.12;101335.09;5073398;28;20512;-67
2021/06/25 02:48:57;;;;;;;3.90;1.13;;;;;;;15.59;71.01;101340.53;5072866;28;20060;-68
2021/06/25 02:51:24;;;;;;;2.97;1.00;;;;;;;15.61;69.46;101334.25;5073189;28;20056;-67
2021/06/25 02:53:51;;;;;;;1.20;1.00;;;;;;;15.75;69.74;101335.13;5073277;28;20053;-67
2021/06/25 02:56:18;;;;;;;1.52;1.02;;;;;;;15.73;69.58;101331.78;5073304;28;20064;-67
2021/06/25 02:58:44;;;;;;;;;;;;;;;15.82;70.00;101333.78;5073914;28;20052;-68
2021/06/25 03:01:11;;;;;;;;;;;;;;;15.83;69.45;101325.81;5073397;28;20397;-67
2021/06/25 03:03:38;;;;;;;1.20;1.10;;;;;;;15.87;70.69;101329.06;5073243;28;20290;-68
2021/06/25 03:06:06;;;;;;;3.25;1.20;;;;;;;15.99;70.22;101328.22;5072569;28;20052;-68
2021/06/25 03:08:33;;;;;;;1.52;1.00;;;;;;;15.96;71.69;101323.19;5073130;28;20071;-68
2021/06/25 03:11:01;;;;;;;1.00;0.90;;;;;;;16.11;68.63;101321.28;5073001;28;20056;-68
2021/06/25 03:13:27;;;;;;;1.50;1.08;;;;;;;16.27;67.52;101318.44;5072790;28;20052;-68
2021/06/25 03:15:55;;;;;;;2.72;1.00;;;;;;;16.33;68.40;101313.56;5072929;28;20059;-67
2021/06/25 03:18:22;;;;;;;5.82;1.20;;;;;;;16.37;67.73;101316.84;5072424;28;20045;-67
2021/06/25 03:20:49;;;;;;;2.08;0.90;;;;;;;16.35;68.10;101321.34;5072463;28;20055;-68
2021/06/25 03:23:17;;;;;;;;;;;;;;;16.15;69.72;101322.75;5073006;28;20052;-68
2021/06/25 03:25:44;;;;;;;1.70;1.13;;;;;;;16.22;71.05;101313.50;5072487;28;20298;-68
2021/06/25 03:28:11;;;;;;;3.17;1.02;;;;;;;16.07;72.26;101319.81;5072143;28;20526;-68
2021/06/25 03:30:38;;;;;;;;;;;;;;;16.10;70.43;101322.22;5072853;28;20059;-68
2021/06/25 03:33:05;;;;;;;4.82;1.02;;;;;;;16.01;71.44;101320.25;5072631;28;19920;-68
2021/06/25 03:35:32;;;;;;;2.78;1.20;;;;;;;16.09;69.15;101323.19;5072386;28;20475;-68
2021/06/25 03:37:59;;;;;;;1.90;1.00;;;;;;;16.18;70.68;101308.56;5072719;28;20052;-67
2021/06/25 03:40:31;;;;;;;1.35;0.93;;;;;;;16.28;68.82;101310.44;5072120;28;20517;-68
2021/06/25 03:42:57;;;;;;;2.80;0.90;;;;;;;16.43;67.43;101307.69;5072569;28;20052;-67
2021/06/25 03:45:24;;;;;;;1.20;1.10;;;;;;;16.49;68.74;101302.84;5072216;28;20071;-68
2021/06/25 03:47:51;;;;;;;7.68;1.27;;;;;;;16.57;68.14;101304.94;5072025;28;20056;-69
2021/06/25 03:50:19;;;;;;;1.10;1.00;;;;;;;16.62;68.44;101309.84;5071846;28;20101;-68
2021/06/25 03:52:46;;;;;;;5.03;1.10;;;;;;;16.76;66.18;101300.00;5072490;28;20041;-68
2021/06/25 03:55:13;;;;;;;2.47;1.00;;;;;;;16.83;66.97;101303.06;5071744;28;20411;-68
2021/06/25 03:57:43;;;;;;;3.17;1.17;;;;;;;16.79;64.08;101300.78;5072414;28;20047;-68
2021/06/25 04:00:12;;;;;;;1.77;1.00;;;;;;;16.82;66.17;101295.28;5071870;28;20438;-68
2021/06/25 04:02:40;;;;;;;1.63;1.50;;;;;;;16.79;67.31;101296.34;5072083;28;20514;-68
2021/06/25 04:05:09;;;;;;;2.10;1.30;;;;;;;16.81;66.32;101291.84;5072069;28;20056;-68
2021/06/25 04:07:36;;;;;;;2.10;1.40;;;;;;;16.75;65.81;101305.41;5071699;28;20509;-68
2021/06/25 04:10:04;;;;;;;3.53;1.75;;;;;;;16.60;65.34;101302.06;5072304;28;20052;-68
2021/06/25 04:12:31;;;;;;;1.88;1.20;;;;;;;16.68;64.61;101298.91;5072139;28;20059;-68
2021/06/25 04:15:00;;;;;;;2.13;1.40;;;;;;;16.64;66.79;101293.00;5072104;28;20049;-67
2021/06/25 04:17:27;;;;;;;1.92;1.40;;;;;;;16.61;67.19;101293.22;5072214;28;20055;-68
2021/06/25 04:19:54;;;;;;;2.17;1.30;;;;;;;16.64;67.17;101303.53;5071869;28;20407;-67
2021/06/25 04:22:21;;;;;;;2.80;1.40;;;;;;;16.80;65.14;101307.69;5072186;28;20056;-68
2021/06/25 04:24:48;;;;;;;2.13;1.50;;;;;;;16.88;66.27;101302.75;5071864;28;20053;-67
2021/06/25 04:27:14;;;;;;;1.75;1.40;;;;;;;16.95;66.35;101304.81;5071667;28;20053;-67
2021/06/25 04:29:41;;;;;;;3.50;1.40;;;;;;;17.00;67.13;101301.81;5072151;28;20044;-67
2021/06/25 04:32:11;;;;;;;;;;;;;;;17.15;64.17;101297.25;5071990;28;20402;-67
2021/06/25 04:34:38;;;;;;;4.70;1.50;;;;;;;17.23;64.26;101304.56;5071755;28;20026;-68
2021/06/25 04:37:05;;;;;;;2.22;1.20;;;;;;;17.57;63.46;101302.84;5071940;28;20045;-68
2021/06/25 04:39:32;;;;;;;1.83;1.30;;;;;;;17.46;64.27;101295.78;5074294;28;20045;-68
2021/06/25 04:41:59;;;;;;;2.08;1.30;;;;;;;17.79;62.59;101291.53;5075641;28;20044;-68
2021/06/25 04:44:26;;;;;;;;;;;;;;;18.03;63.05;101287.06;5075806;28;20048;-67
2021/06/25 04:46:52;;;;;;;;;;;;;;;18.17;63.19;101288.59;5076226;28;19944;-67
2021/06/25 04:49:20;;;;;;;;;;;;;;;18.44;61.32;101288.19;5075680;28;19939;-67
2021/06/25 04:51:47;;;;;;;3.42;1.33;;;;;;;18.41;60.86;101288.44;5075874;28;19927;-68
2021/06/25 04:54:14;;;;;;;1.48;1.20;;;;;;;18.42;60.43;101287.50;5075232;28;20055;-68
2021/06/25 04:56:41;;;;;;;3.45;1.63;;;;;;;18.32;63.53;101293.63;5075927;28;20059;-67
2021/06/25 04:59:07;;;;;;;1.50;1.40;;;;;;;18.36;59.44;101289.75;5074973;28;20045;-68
2021/06/25 05:01:34;;;;;;;1.40;1.30;;;;;;;18.31;60.94;101290.13;5075588;28;20056;-68
2021/06/25 05:04:01;;;;;;;;;;;;;;;18.47;60.97;101289.75;5075767;28;20612;-68
2021/06/25 05:06:29;;;;;;;;;;;;;;;18.51;60.24;101293.81;5075693;28;19920;-68
2021/06/25 05:08:55;;;;;;;2.17;1.40;;;;;;;18.50;60.88;101294.78;5075033;28;20283;-68
2021/06/25 05:11:22;;;;;;;4.03;1.50;;;;;;;18.45;60.68;101295.16;5075094;28;20060;-67
2021/06/25 05:13:49;;;;;;;3.35;1.80;;;;;;;18.57;62.46;101298.59;5075347;28;20052;-67
2021/06/25 05:16:16;;;;;;;2.67;1.80;;;;;;;18.55;62.39;101300.53;5074689;28;20048;-67
2021/06/25 05:18:43;;;;;;;3.30;1.50;;;;;;;18.41;60.56;101298.16;5074985;28;20048;-67
2021/06/25 05:21:10;;;;;;;4.40;1.90;;;;;;;18.29;62.66;101302.59;5074991;28;20056;-68
2021/06/25 05:23:39;;;;;;;3.28;1.70;;;;;;;18.41;61.74;101309.50;5074688;28;20060;-67
2021/06/25 05:26:06;;;;;;;3.13;1.45;;;;;;;18.50;64.39;101313.22;5075096;28;20052;-67
2021/06/25 05:28:32;;;;;;;;;;;;;;;18.71;60.98;101313.31;5075173;28;20506;-67
2021/06/25 05:30:59;;;;;;;2.35;1.75;;;;;;;18.78;60.12;101313.66;5075035;28;19920;-67
2021/06/25 05:33:26;;;;;;;;;;;;;;;18.96;61.37;101314.84;5075218;28;20240;-68
2021/06/25 05:35:52;;;;;;;;;;;;;;;18.84;61.25;101318.47;5075417;28;19921;-67
2021/06/25 05:38:19;;;;;;;;;;;;;;;19.12;61.65;101320.50;5074776;28;19920;-67
2021/06/25 05:40:47;;;;;;;;;;;;;;;19.21;59.45;101311.00;5074911;28;19920;-68
2021/06/25 05:43:14;;;;;;;2.45;1.10;;;;;;;19.29;59.29;101311.22;5074295;28;19928;-68
2021/06/25 05:45:41;;;;;;;1.73;1.05;;;;;;;19.49;60.84;101319.25;5074803;28;20048;-68
2021/06/25 05:48:10;;;;;;;2.95;0.90;;;;;;;19.34;59.22;101316.94;5074015;28;20052;-67
2021/06/25 05:50:37;;;;;;;2.65;1.08;;;;;;;19.42;59.40;101315.44;5073203;28;20063;-67
2021/06/25 05:53:05;;;;;;;1.77;1.02;;;;;;;19.47;57.09;101322.03;5074584;28;20049;-67
2021/06/25 05:55:32;;;;;;;1.52;1.00;;;;;;;19.41;57.52;101332.25;5074625;28;20052;-67
2021/06/25 05:58:00;;;;;;;1.92;1.10;;;;;;;19.75;57.72;101336.38;5074563;28;20049;-68
2021/06/25 06:00:27;;;;;;;4.18;1.10;;;;;;;20.04;58.42;101330.47;5073922;28;20310;-68
2021/06/25 06:02:54;;;;;;;;;;;;;;;20.27;57.70;101328.47;5074674;28;20510;-67
2021/06/25 06:05:20;;;;;;;0.73;0.63;;;;;;;19.75;53.78;101332.91;5074200;28;19943;-67
2021/06/25 06:07:47;;;;;;;;;;;;;;;19.85;52.01;101331.19;5074466;28;20054;-67
2021/06/25 06:10:16;;;;;;;0.80;0.60;;;;;;;19.96;53.65;101331.13;5073791;28;19925;-68
2021/06/25 06:12:43;;;;;;;0.70;0.60;;;;;;;19.90;52.79;101334.25;5074228;28;20101;-67
2021/06/25 06:15:12;;;;;;;1.45;0.52;;;;;;;19.93;53.68;101333.16;5073657;28;20450;-68
2021/06/25 06:17:40;;;;;;;2.05;0.52;;;;;;;19.89;53.11;101329.97;5073898;28;20483;-67
2021/06/25 06:20:10;;;;;;;1.45;0.70;;;;;;;20.03;53.23;101328.75;5073873;28;20055;-67
2021/06/25 06:33:38;;;;;;;0.53;0.53;;;;;;;20.62;52.02;101333.31;5073699;28;20067;-67
2021/06/25 06:36:12;;;;;;;2.28;0.70;;;;;;;20.63;54.64;101336.81;5073465;28;20332;-67
2021/06/25 06:38:39;;;;;;;1.60;0.60;;;;;;;20.70;55.85;101332.63;5073649;28;20040;-67
2021/06/25 06:41:05;;;;;;;;;;;;;;;20.86;57.36;101326.84;5074107;28;20049;-67
2021/06/25 06:43:34;;;;;;;0.80;0.80;;;;;;;20.85;56.09;101333.09;5073642;28;19927;-67
2021/06/25 06:46:02;;;;;;;1.88;0.80;;;;;;;21.01;53.52;101338.66;5073290;28;20048;-67
2021/06/25 06:48:29;;;;;;;1.80;0.57;;;;;;;21.05;53.56;101332.13;5072686;28;20495;-68
2021/06/25 06:50:55;;;;;;;;;;;;;;;21.34;48.43;101333.94;5073820;28;20044;-67
2021/06/25 06:53:22;;;;;;;0.73;0.60;;;;;;;21.75;46.91;101327.47;5072809;28;19924;-68
2021/06/25 06:55:49;;;;;;;0.80;0.80;;;;;;;21.67;46.79;101331.84;5073393;28;20048;-67
2021/06/25 06:58:17;;;;;;;;;;;;;;;21.77;45.74;101329.16;5073187;28;20406;-67
2021/06/25 07:00:43;;;;;;;2.38;0.80;;;;;;;22.38;48.04;101328.69;5073063;28;20365;-68
2021/06/25 07:03:13;;;;;;;;;;;;;;;22.78;49.31;101322.16;5073172;28;20048;-68
2021/06/25 07:05:39;;;;;;;0.85;0.80;;;;;;;23.18;48.47;101329.69;5072801;28;19920;-68
2021/06/25 07:08:06;;;;;;;4.53;0.98;;;;;;;23.57;46.30;101324.03;5073084;28;20049;-68
2021/06/25 07:10:33;;;;;;;1.45;0.88;;;;;;;23.98;43.49;101326.97;5073127;28;20068;-68
2021/06/25 07:13:00;;;;;;;1.00;0.80;;;;;;;24.17;44.56;101328.53;5072823;28;20388;-68
2021/06/25 07:15:27;;;;;;;2.15;0.85;;;;;;;24.36;43.63;101335.44;5072775;28;20063;-68
2021/06/25 07:17:54;;;;;;;1.40;0.73;;;;;;;24.32;45.16;101337.56;5072624;28;20056;-67
2021/06/25 07:20:22;;;;;;;1.25;0.70;;;;;;;24.83;40.41;101334.09;5072218;28;20052;-67
2021/06/25 07:22:49;;;;;;;0.82;0.50;;;;;;;24.54;42.99;101335.38;5072604;28;20059;-67
2021/06/25 07:25:16;;;;;;;1.02;0.82;;;;;;;23.84;40.08;101325.72;5072642;28;20079;-67
2021/06/25 07:27:43;;;;;;;2.42;0.70;;;;;;;24.13;42.46;101327.19;5072416;28;20483;-67
2021/06/25 07:30:10;;;;;;;0.70;0.63;;;;;;;24.50;41.65;101328.69;5072570;28;20048;-68
2021/06/25 07:32:37;;;;;;;1.85;0.70;;;;;;;25.03;39.64;101331.97;5072479;28;20426;-68
2021/06/25 07:35:05;;;;;;;1.55;0.73;;;;;;;24.36;40.22;101332.78;5072430;28;20055;-67
2021/06/25 07:37:33;;;;;;;2.83;0.70;;;;;;;25.35;41.61;101336.50;5072301;28;20487;-67
2021/06/25 07:40:00;;;;;;;1.67;0.68;;;;;;;25.59;39.18;101327.66;5072398;28;20430;-68
2021/06/25 07:42:27;;;;;;;0.95;0.70;;;;;;;25.82;38.62;101333.13;5072356;28;20135;-67
2021/06/25 07:44:54;;;;;;;2.00;0.75;;;;;;;25.66;37.56;101331.28;5072595;28;20056;-68
2021/06/25 07:47:21;;;;;;;2.05;0.55;;;;;;;26.64;36.21;101327.47;5071898;28;20068;-69
2021/06/25 07:49:49;;;;;;;1.77;0.63;;;;;;;26.49;35.44;101330.88;5072268;28;20060;-67
2021/06/25 07:52:16;;;;;;;1.60;0.65;;;;;;;27.22;35.85;101335.94;5071953;28;20049;-68
2021/06/25 07:54:44;;;;;;;1.85;0.70;;;;;;;26.41;34.70;101338.94;5072174;28;20510;-68
2021/06/25 07:57:11;;;;;;;1.48;0.60;;;;;;;25.82;36.03;101339.28;5072247;28;20056;-68
2021/06/25 07:59:38;;;;;;;0.63;0.60;;;;;;;26.57;37.18;101342.53;5072328;28;20051;-69
2021/06/25 08:02:05;;;;;;;1.95;0.60;;;;;;;27.47;35.07;101342.75;5072116;28;20055;-67
2021/06/25 08:04:32;;;;;;;0.70;0.50;;;;;;;26.23;36.00;101340.97;5072321;28;20132;-67
2021/06/25 08:06:59;;;;;;;1.33;0.80;;;;;;;26.97;36.20;101330.75;5072226;28;20151;-68
2021/06/25 08:09:26;;;;;;;1.58;0.70;;;;;;;26.91;35.92;101339.50;5071914;28;20051;-68
2021/06/25 08:11:54;;;;;;;4.05;0.80;;;;;;;28.99;35.49;101337.72;5071959;28;20052;-67
2021/06/25 08:14:21;;;;;;;1.02;0.70;;;;;;;28.42;32.53;101334.00;5071223;28;20071;-68
2021/06/25 08:16:47;;;;;;;1.48;0.90;;;;;;;28.02;33.62;101346.84;5071906;28;20063;-68
2021/06/25 08:19:14;;;;;;;3.33;0.60;;;;;;;28.31;32.80;101341.66;5071574;28;20127;-67
2021/06/25 08:21:41;;;;;;;1.45;0.80;;;;;;;27.24;34.94;101345.44;5072088;28;20055;-68
2021/06/25 08:24:08;;;;;;;1.48;0.80;;;;;;;26.85;35.46;101340.22;5071582;28;20487;-67
2021/06/25 08:26:36;;;;;;;3.20;0.90;;;;;;;27.86;34.70;101347.06;5071774;28;20055;-68
2021/06/25 08:29:04;;;;;;;0.70;0.70;;;;;;;28.33;35.79;101337.78;5072011;28;20049;-68
2021/06/25 08:31:31;;;;;;;1.15;0.70;;;;;;;26.68;37.19;101345.63;5072049;28;20041;-68
2021/06/25 08:33:58;;;;;;;0.90;0.70;;;;;;;25.41;36.10;101343.81;5072031;28;20064;-68
2021/06/25 08:36:26;;;;;;;2.05;0.80;;;;;;;24.85;36.47;101334.78;5071773;28;20048;-68
2021/06/25 08:38:53;;;;;;;2.75;0.50;;;;;;;25.26;36.53;101342.84;5071988;28;20048;-67
2021/06/25 08:41:19;;;;;;;0.55;0.50;;;;;;;26.09;37.38;101347.88;5071610;28;20048;-68
2021/06/25 08:43:46;;;;;;;1.02;0.50;;;;;;;25.73;35.61;101348.28;5071674;28;20055;-68
2021/06/25 08:46:15;;;;;;;2.10;0.60;;;;;;;26.34;35.42;101345.13;5071650;28;20060;-68
2021/06/25 08:48:46;;;;;;;1.83;0.70;;;;;;;25.23;37.54;101345.81;5071448;28;20052;-68
2021/06/25 08:51:13;;;;;;;0.82;0.70;;;;;;;25.49;36.83;101350.97;5071646;28;20438;-68
2021/06/25 08:53:40;;;;;;;0.95;0.57;;;;;;;25.27;36.73;101353.31;5067492;28;20045;-67
2021/06/25 08:56:06;;;;;;;0.82;0.40;;;;;;;25.20;35.85;101347.81;5059524;28;20507;-67
2021/06/25 08:58:33;;;;;;;0.57;0.40;;;;;;;25.24;35.43;101358.13;5058143;28;20076;-67
2021/06/25 09:01:00;;;;;;;0.75;0.50;;;;;;;25.40;35.21;101348.31;5051459;28;20071;-67
2021/06/25 09:03:30;;;;;;;0.80;0.40;;;;;;;24.96;33.34;101353.91;5069055;28;20608;-67
2021/06/25 09:06:09;;;;;;;0.82;0.50;;;;;;;26.19;34.73;101347.69;5071967;28;20203;-67
2021/06/25 09:08:36;;;;;;;0.88;0.30;;;;;;;26.35;33.79;101352.94;5071534;28;20053;-67
2021/06/25 09:11:19;;;;;;;0.40;0.40;;;;;;;26.76;30.80;101359.94;5061259;28;20049;-68
2021/06/25 09:13:46;;;;;;;0.47;0.45;;;;;;;27.36;29.78;101349.34;5051341;28;20049;-67
2021/06/25 09:16:21;;;;;;;0.73;0.45;;;;;;;27.88;29.96;101355.72;5051169;28;20055;-67
2021/06/25 09:19:04;;;;;;;0.32;0.32;;;;;;;28.91;27.53;101355.78;5051567;28;20095;-67
2021/06/25 09:21:33;;;;;;;0.50;0.40;;;;;;;27.39;29.96;101350.84;5051504;28;20049;-68
2021/06/25 09:24:22;;;;;;;1.45;0.40;;;;;;;27.69;28.86;101362.38;5051021;28;20433;-67
2021/06/25 09:26:50;;;;;;;1.00;0.40;;;;;;;27.04;30.87;101361.09;5054896;28;20099;-68
2021/06/25 09:29:22;;;;;;;1.40;0.40;;;;;;;25.92;31.71;101357.78;5074334;28;20048;-68
2021/06/25 09:31:57;;;;;;;1.75;0.40;;;;;;;26.14;34.36;101358.03;5074943;28;20079;-67
2021/06/25 09:34:39;;;;;;;0.35;0.35;;;;;;;26.49;33.14;101357.56;5074958;28;20053;-67
2021/06/25 09:37:07;;;;;;;1.08;0.52;;;;;;;26.20;31.73;101349.34;5074808;28;20052;-67
2021/06/25 09:39:35;;;;;;;0.30;0.30;;;;;;;26.63;32.49;101347.16;5074727;28;20044;-67
2021/06/25 09:42:02;;;;;;;1.73;0.20;;;;;;;25.51;33.56;101344.50;5074650;28;20044;-67
2021/06/25 09:44:29;;;;;;;0.65;0.30;;;;;;;25.87;33.80;101345.94;5074369;28;20410;-67
2021/06/25 09:46:56;;;;;;;0.50;0.50;;;;;;;25.99;34.15;101356.06;5074876;28;20051;-67
2021/06/25 09:49:31;;;;;;;1.35;0.38;;;;;;;27.40;34.91;101357.00;5073991;28;20052;-67
2021/06/25 09:52:01;;;;;;;3.88;0.40;;;;;;;27.35;34.00;101349.53;5074659;28;20055;-67
2021/06/25 09:54:29;;;;;;;0.30;0.30;;;;;;;27.21;31.10;101353.00;5074173;28;20407;-67
2021/06/25 09:57:05;;;;;;;1.95;0.40;;;;;;;27.73;31.03;101350.34;5074213;28;20048;-68
2021/06/25 09:59:41;;;;;;;0.95;0.38;;;;;;;27.21;30.75;101347.66;5074639;28;20057;-67
2021/06/25 10:02:27;;;;;;;0.80;0.47;;;;;;;27.13;31.22;101343.19;5064559;28;20055;-68
2021/06/25 10:04:56;;;;;;;2.55;0.40;;;;;;;26.77;31.55;101335.75;5054460;28;20057;-69
2021/06/25 10:07:26;;;;;;;4.75;0.40;;;;;;;28.02;32.34;101352.22;5053822;28;20415;-68
2021/06/25 10:09:54;;;;;;;1.55;0.40;;;;;;;28.26;28.64;101357.44;5053946;28;20045;-68
2021/06/25 10:12:23;;;;;;;3.88;0.43;;;;;;;29.38;30.80;101352.50;5053958;28;20055;-68
2021/06/25 10:14:52;;;;;;;3.50;0.40;;;;;;;29.17;30.53;101342.66;5053950;28;20056;-69
2021/06/25 10:17:19;;;;;;;2.05;0.50;;;;;;;28.82;29.54;101349.69;5053513;28;20117;-69
2021/06/25 10:19:48;;;;;;;0.52;0.40;;;;;;;29.59;28.89;101335.53;5052204;28;20053;-69
2021/06/25 10:22:17;;;;;;;1.48;0.43;;;;;;;30.79;28.35;101328.91;5052200;28;20511;-68
2021/06/25 10:24:49;;;;;;;0.50;0.50;;;;;;;31.03;29.99;101335.59;5052852;28;20060;-68
2021/06/25 10:27:18;;;;;;;0.52;0.43;;;;;;;30.87;27.98;101330.59;5052773;28;20045;-68
2021/06/25 10:29:48;;;;;;;1.33;0.40;;;;;;;30.27;31.25;101335.78;5052851;28;20051;-68
2021/06/25 10:32:16;;;;;;;0.45;0.45;;;;;;;32.53;27.53;101333.00;5052639;28;20049;-69
2021/06/25 10:34:44;;;;;;;0.43;0.40;;;;;;;31.53;28.99;101339.72;5053635;28;20055;-69
2021/06/25 10:37:15;;;;;;;0.77;0.30;;;;;;;33.55;25.86;101335.59;5053080;28;20049;-69
2021/06/25 10:39:42;;;;;;;2.03;0.30;;;;;;;33.61;24.79;101332.00;5053860;28;20049;-69
2021/06/25 10:42:12;;;;;;;1.60;0.30;;;;;;;34.45;25.45;101340.38;5053474;28;20044;-69
2021/06/25 10:44:42;;;;;;;3.40;0.30;;;;;;;34.84;25.25;101337.34;5053587;28;20057;-69
2021/06/25 10:47:21;;;;;;;0.43;0.30;;;;;;;33.35;27.05;101340.34;5053040;28;20090;-69
2021/06/25 10:50:31;;;;;;;3.13;0.40;;;;;;;35.17;24.71;101334.13;5053300;28;20388;-69
2021/06/25 10:53:20;;;;;;;2.05;0.20;;;;;;;33.98;25.85;101329.28;5053663;28;20063;-69
2021/06/25 10:56:05;;;;;;;0.55;0.30;;;;;;;34.15;25.87;101332.25;5053197;28;20643;-69
2021/06/25 10:58:34;;;;;;;0.60;0.40;;;;;;;34.71;24.16;101332.97;5053482;28;20049;-69
2021/06/25 11:01:04;;;;;;;0.50;0.30;;;;;;;32.98;25.39;101330.22;5053036;28;20051;-69
2021/06/25 11:03:43;;;;;;;2.33;0.35;;;;;;;31.87;31.23;101331.38;5072827;28;20567;-69
2021/06/25 11:06:32;;;;;;;0.90;0.30;;;;;;;31.29;28.10;101338.47;5073058;28;20048;-69
2021/06/25 11:09:04;;;;;;;1.10;0.40;;;;;;;31.05;28.91;101338.03;5072787;28;20052;-68
2021/06/25 11:11:31;;;;;;;1.17;0.50;;;;;;;31.27;31.82;101340.56;5073186;28;20045;-69
2021/06/25 11:14:01;;;;;;;0.77;0.30;;;;;;;30.31;31.49;101334.34;5072665;28;20052;-69
2021/06/25 11:16:28;;;;;;;2.60;0.40;;;;;;;29.77;33.88;101337.75;5072662;28;20125;-69
2021/06/25 11:18:55;;;;;;;0.70;0.50;;;;;;;29.55;33.62;101339.66;5073057;28;20041;-68
2021/06/25 11:21:42;;;;;;;1.20;0.40;;;;;;;29.06;34.26;101348.53;5072708;28;20052;-71
2021/06/25 11:24:09;;;;;;;0.40;0.40;;;;;;;28.92;34.18;101346.72;5072289;28;20086;-69
2021/06/25 11:26:52;;;;;;;1.70;0.45;;;;;;;28.20;35.50;101354.50;5072555;28;20060;-67
2021/06/25 11:29:20;;;;;;;1.92;0.50;;;;;;;27.80;34.66;101350.44;5072718;28;20053;-69
2021/06/25 11:31:47;;;;;;;2.17;0.52;;;;;;;27.70;38.21;101357.91;5072688;28;20053;-69
2021/06/25 11:34:30;;;;;;;0.82;0.60;;;;;;;28.21;35.24;101361.53;5072444;28;20049;-68
2021/06/25 11:36:58;;;;;;;2.25;0.60;;;;;;;28.11;38.48;101362.84;5072552;28;20048;-69
2021/06/25 11:39:32;;;;;;;2.10;0.60;;;;;;;29.21;35.70;101351.97;5072108;28;20045;-69
2021/06/25 11:42:02;;;;;;;0.80;0.55;;;;;;;30.87;33.18;101352.06;5072219;28;20047;-69
2021/06/25 11:44:33;;;;;;;1.15;0.55;;;;;;;31.92;33.25;101351.44;5072664;28;20075;-69
2021/06/25 11:47:04;;;;;;;1.05;0.65;;;;;;;32.51;31.90;101351.25;5072307;28;20578;-68
2021/06/25 11:49:38;;;;;;;0.82;0.40;;;;;;;32.56;29.06;101347.91;5070899;28;20060;-68